Weather at St. Andrä Im Lavanttal Heliport

Public forecast

Using degrees Celsius for public forecast. Weather courtesy of forecast.io.

Closest aviation weather report (METAR) to St. Andrä Im Lavanttal Heliport

Closest report is Klagenfurt Airport, 21.3 nm (39.4 km) WSW.

2024/05/30 04:20 (retrieved 11 minutes ago)

LOWK 300420Z AUTO VRB02KT CAVOK 12/10 Q1010 NOSIG

Closest aviation forecast (TAF) to St. Andrä Im Lavanttal Heliport

Forecast is more than 6 hours old.

Closest forecast is Bolzano Airport, 145.4 nm (269.3 km) W.

2024/05/29 18:35 (retrieved 10 hours ago)

TAF LIPB 292124Z 2918/3018 CNL